NCAR-RAP Real-Time Weather Data

Output produced by METARs form (24 April 2018  16:24 UTC)
found at http://weather.rap.ucar.edu/surface/
 
RJSS 241210Z 06007KT 5000 -RA BR FEW001 SCT003 BKN006 12/12 Q1011 RMK 1ST001 4ST003 7ST006 A2985
RJSS 241200Z 05006KT 5000 -RA BR FEW001 BKN003 BKN006 13/13 Q1011
RJSS 241100Z 04005KT 5000 -RA BR FEW001 BKN003 BKN005 13/13 Q1011
RJSS 241000Z 02004KT 4000 -RA BR FEW001 BKN003 BKN005 13/13 Q1011
RJSS 240915Z 36003KT 330V040 4000 -RA BR FEW001 BKN003 BKN005 12/12 Q1011 RMK 1ST001 5ST003 7ST005 A2986
RJSS 240900Z 34003KT 4000 -RA BR FEW001 SCT003 BKN005 12/12 Q1011
RJSS 240800Z 05003KT 5000 -RA BR FEW001 SCT003 BKN008 12/12 Q1011
RJSS 240700Z 07004KT 6000 -RA FEW004 SCT006 BKN008 12/12 Q1012
RJSS 240600Z 11004KT 7000 -RA FEW004 BKN006 BKN010 12/12 Q1012
RJSS 240500Z 11005KT 5000 -RA BR FEW003 SCT008 BKN015 12/12 Q1013
RJSS 240400Z 11005KT 7000 -RA FEW004 SCT007 BKN015 12/12 Q1013
RJSS 240300Z 12005KT 7000 -RA FEW005 SCT008 BKN012 13/12 Q1014
RJSS 240200Z 11003KT 9000 -RA FEW004 SCT006 BKN010 13/12 Q1015
RJSS 240100Z VRB01KT 8000 -RA FEW004 SCT006 BKN008 13/12 Q1016
RJSS 240000Z VRB01KT 8000 -RA FEW004 SCT006 BKN008 12/11 Q1017
RJSS 232300Z 27003KT 8000 -RA FEW004 BKN008 BKN010 12/11 Q1017
RJSS 232247Z 26003KT 8000 -RA FEW004 BKN008 BKN010 12/11 Q1017 RMK 1ST004 5ST008 7ST010 A3005
RJSS 232200Z 28003KT 250V330 9999 -RA FEW004 BKN010 11/11 Q1017
RJSS 232100Z 34003KT 9999 -RA FEW004 SCT010 BKN015 11/10 Q1018
RJSS 232030Z 34003KT 9999 -RA FEW004 BKN015 11/10 Q1018 RMK 1ST004 7SC015 A3007
RJSS 231200Z 05007KT 9999 FEW008 SCT010 BKN015 12/10 Q1022
RJSS 231100Z 04007KT 9999 FEW008 SCT010 BKN020 12/10 Q1023
RJSS 231000Z 05008KT 9999 FEW008 SCT010 BKN015 12/10 Q1023
RJSS 230900Z 06009KT 9999 FEW008 SCT010 BKN015 12/09 Q1023
RJSS 230800Z 06010KT 9999 FEW008 SCT010 BKN015 12/10 Q1023
RJSS 230700Z 06012KT 9999 FEW010 BKN015 BKN020 12/09 Q1022
RJSS 230600Z 07013KT 9999 FEW010 BKN015 BKN030 13/09 Q1023
RJSS 230500Z 06012KT 9999 FEW010 BKN015 BKN030 13/09 Q1023
RJSS 230400Z 06009KT 9999 FEW010 SCT012 BKN015 13/10 Q1023
RJSS 230300Z 06010KT 8000 -RA FEW008 SCT010 BKN012 12/10 Q1024
RJSS 230200Z 06010KT 8000 -RA FEW008 SCT013 BKN015 12/10 Q1024
RJSS 230100Z 02006KT 7000 -RA FEW008 SCT013 BKN015 12/10 Q1025
RJSS 230000Z 04007KT 9999 -RA FEW010 BKN015 BKN020 13/10 Q1024
RJSS 222300Z 36004KT 300V050 8000 FEW010 BKN015 BKN025 12/09 Q1024
RJSS 222200Z 02004KT 330V060 8000 FEW010 BKN015 BKN025 12/09 Q1023
RJSS 222100Z 01004KT 290V050 6000 FEW006 BKN015 BKN025 12/09 Q1023
RJSS 222030Z 02006KT 350V060 6000 FEW006 SCT015 BKN025 12/09 Q1022 RMK 1ST006 3SC015 5SC025 A3018
RJSS 221200Z 00000KT 8000 NSC 13/09 Q1020
RJSS 221100Z VRB01KT CAVOK 14/08 Q1019
RJSS 221000Z 13003KT 090V160 9999 FEW050 14/08 Q1019
RJSS 220900Z 04006KT 9999 FEW060 BKN/// 15/07 Q1018
RJSS 220800Z 05010KT CAVOK 16/08 Q1018
RJSS 220700Z 08017KT CAVOK 18/07 Q1017
RJSS 220600Z 07018KT CAVOK 18/08 Q1017
RJSS 220500Z 10011KT 070V130 CAVOK 19/08 Q1016